Time;durP1;ratioP1;P1;durP2;ratioP2;P2;SDS_P1;SDS_P2;PMS_P1;PMS_P2;Temp;Humidity;BMP_temperature;BMP_pressure;BME280_temperature;BME280_humidity;BME280_pressure;Samples;Min_cycle;Max_cycle;Signal;HPM_P1;HPM_P2
2021/01/20 00:00:15;;;;;;;10.80;2.53;;;24.70;53.90;;;;;;6239620;23;20016;-70
2021/01/20 00:02:41;;;;;;;8.63;1.98;;;24.70;54.00;;;;;;6240963;23;20521;-73
2021/01/20 00:05:08;;;;;;;6.93;2.08;;;24.70;54.00;;;;;;6240371;23;20016;-72
2021/01/20 00:07:35;;;;;;;7.63;2.97;;;24.70;53.90;;;;;;6241438;23;20038;-71
2021/01/20 00:10:02;;;;;;;5.25;2.40;;;24.70;54.00;;;;;;6240981;23;20050;-73
2021/01/20 00:12:29;;;;;;;5.75;1.88;;;24.70;54.70;;;;;;6240882;23;19996;-72
2021/01/20 00:14:56;;;;;;;12.40;3.15;;;24.70;54.20;;;;;;6240912;23;20062;-71
2021/01/20 00:17:22;;;;;;;10.13;1.98;;;24.70;54.40;;;;;;6240345;23;20001;-71
2021/01/20 00:19:49;;;;;;;9.18;2.65;;;24.70;54.40;;;;;;6241264;23;20079;-72
2021/01/20 00:22:16;;;;;;;6.72;2.30;;;24.60;54.60;;;;;;6239449;23;20003;-72
2021/01/20 00:24:42;;;;;;;7.68;2.45;;;24.60;54.60;;;;;;6241780;23;20123;-72
2021/01/20 00:27:09;;;;;;;6.70;2.20;;;24.60;54.70;;;;;;6240708;23;20003;-73
2021/01/20 00:29:36;;;;;;;7.30;2.53;;;24.60;54.80;;;;;;6240874;22;20054;-70
2021/01/20 00:32:03;;;;;;;6.50;2.45;;;24.60;54.80;;;;;;6240666;23;20159;-71
2021/01/20 00:34:30;;;;;;;7.40;2.33;;;24.60;54.90;;;;;;6239585;23;20332;-72
2021/01/20 00:36:57;;;;;;;7.13;3.25;;;24.60;54.80;;;;;;6240979;23;20000;-71
2021/01/20 00:39:23;;;;;;;10.32;2.88;;;24.60;54.90;;;;;;6239997;23;20004;-70
2021/01/20 00:41:50;;;;;;;13.48;3.70;;;24.50;54.90;;;;;;6240895;23;20004;-71
2021/01/20 00:44:16;;;;;;;8.27;2.45;;;24.50;54.90;;;;;;6239977;23;20431;-70
2021/01/20 00:46:43;;;;;;;4.13;1.90;;;24.50;54.90;;;;;;6240747;23;20630;-72
2021/01/20 00:49:10;;;;;;;7.53;1.98;;;24.60;54.90;;;;;;6240396;23;20031;-70
2021/01/20 00:51:36;;;;;;;9.10;3.13;;;24.50;54.80;;;;;;6239832;23;20004;-69
2021/01/20 00:54:03;;;;;;;5.72;2.45;;;24.50;54.80;;;;;;6241139;23;20086;-72
2021/01/20 00:56:29;;;;;;;5.97;2.55;;;24.50;54.90;;;;;;6238516;22;20030;-74
2021/01/20 00:58:56;;;;;;;8.32;2.22;;;24.50;55.00;;;;;;6240018;23;20083;-74
2021/01/20 01:01:22;;;;;;;6.88;2.03;;;24.40;54.90;;;;;;6239231;23;20016;-74
2021/01/20 01:03:48;;;;;;;10.55;4.30;;;24.40;54.90;;;;;;6240800;23;20000;-73
2021/01/20 01:06:15;;;;;;;9.32;2.40;;;24.40;55.00;;;;;;6239069;22;20039;-71
2021/01/20 01:08:42;;;;;;;9.98;2.75;;;24.40;54.90;;;;;;6240032;23;20059;-70
2021/01/20 01:11:09;;;;;;;9.80;2.72;;;24.40;54.90;;;;;;6240585;23;19996;-70
2021/01/20 01:13:35;;;;;;;7.20;2.13;;;24.40;54.90;;;;;;6239361;23;20317;-70
2021/01/20 01:16:02;;;;;;;10.25;3.67;;;24.40;54.90;;;;;;6240418;23;20095;-73
2021/01/20 01:18:28;;;;;;;9.65;2.78;;;24.40;54.80;;;;;;6239191;23;20483;-72
2021/01/20 01:20:55;;;;;;;5.38;2.25;;;24.40;54.80;;;;;;6240494;23;20359;-74
2021/01/20 01:23:21;;;;;;;10.57;3.33;;;24.30;54.80;;;;;;6239373;23;20023;-70
2021/01/20 01:25:48;;;;;;;7.53;1.90;;;24.30;54.80;;;;;;6239190;23;20088;-73
2021/01/20 01:28:16;;;;;;;13.00;2.38;;;24.30;54.80;;;;;;6240484;23;20050;-72
2021/01/20 01:30:42;;;;;;;11.25;2.58;;;24.30;54.70;;;;;;6239698;23;20771;-72
2021/01/20 01:33:09;;;;;;;6.07;3.13;;;24.30;54.70;;;;;;6240257;23;20004;-74
2021/01/20 01:35:35;;;;;;;3.95;1.63;;;24.30;54.60;;;;;;6238763;23;20432;-72
2021/01/20 01:38:02;;;;;;;9.80;2.40;;;24.30;54.60;;;;;;6240072;23;20000;-72
2021/01/20 01:40:29;;;;;;;10.02;2.70;;;24.30;54.60;;;;;;6239096;23;20034;-71
2021/01/20 01:42:56;;;;;;;7.70;1.98;;;24.30;54.70;;;;;;6240221;23;20008;-72
2021/01/20 01:45:23;;;;;;;8.13;2.92;;;24.20;54.60;;;;;;6240081;23;20019;-72
2021/01/20 01:47:50;;;;;;;8.48;2.10;;;24.20;54.70;;;;;;6239146;23;20042;-73
2021/01/20 01:50:17;;;;;;;7.07;1.98;;;24.20;54.70;;;;;;6239765;22;20004;-72
2021/01/20 01:52:43;;;;;;;5.65;1.75;;;24.20;55.30;;;;;;6238130;23;20005;-71
2021/01/20 01:55:11;;;;;;;7.53;2.13;;;24.20;54.70;;;;;;6239632;22;20015;-70
2021/01/20 01:57:40;;;;;;;6.65;1.73;;;24.20;54.80;;;;;;6238838;23;20087;-72
2021/01/20 02:00:08;;;;;;;6.68;2.55;;;24.20;54.80;;;;;;6239899;23;20501;-72
2021/01/20 02:02:36;;;;;;;10.70;2.92;;;24.20;54.80;;;;;;6239387;23;20447;-71
2021/01/20 02:05:04;;;;;;;6.82;1.95;;;24.10;54.80;;;;;;6238922;23;20440;-70
2021/01/20 02:07:31;;;;;;;6.22;1.85;;;24.10;54.70;;;;;;6240047;23;19996;-72
2021/01/20 02:10:00;;;;;;;10.05;1.98;;;24.10;54.70;;;;;;6238925;23;20327;-72
2021/01/20 02:13:03;;;;;;;6.03;2.33;;;24.10;54.70;;;;;;6239846;23;19996;-71
2021/01/20 02:15:42;;;;;;;7.28;2.03;;;24.10;54.70;;;;;;6239838;23;20075;-73
2021/01/20 02:18:33;;;;;;;7.32;2.65;;;24.10;54.70;;;;;;6239337;23;20020;-71
2021/01/20 02:21:18;;;;;;;5.13;2.03;;;24.10;54.60;;;;;;6239863;22;20000;-73
2021/01/20 02:23:44;;;;;;;5.75;1.98;;;24.10;54.70;;;;;;6238537;22;20008;-70
2021/01/20 02:26:25;;;;;;;7.57;1.75;;;24.00;54.70;;;;;;6239744;22;20019;-73
2021/01/20 02:29:13;;;;;;;5.78;2.33;;;24.00;54.80;;;;;;6240126;23;20122;-72
2021/01/20 02:31:41;;;;;;;12.63;2.13;;;24.00;54.80;;;;;;6238313;22;20024;-70
2021/01/20 02:34:13;;;;;;;10.65;2.70;;;24.00;54.80;;;;;;6240041;23;20047;-73
2021/01/20 02:36:41;;;;;;;6.93;2.17;;;24.00;54.90;;;;;;6233364;22;20004;-72
2021/01/20 02:39:09;;;;;;;11.05;2.08;;;24.00;55.00;;;;;;6238685;23;20004;-72
2021/01/20 02:41:35;;;;;;;6.43;1.73;;;24.00;55.00;;;;;;6239232;23;20006;-72
2021/01/20 02:44:05;;;;;;;6.43;2.15;;;24.00;55.00;;;;;;6238523;23;20011;-74
2021/01/20 02:46:32;;;;;;;12.85;2.97;;;23.90;55.10;;;;;;6239877;23;20028;-72
2021/01/20 02:48:59;;;;;;;6.72;2.40;;;24.00;55.20;;;;;;6238380;23;20049;-71
2021/01/20 02:51:54;;;;;;;8.40;2.70;;;23.90;55.20;;;;;;6239254;23;20332;-71
2021/01/20 02:54:23;;;;;;;8.13;2.00;;;23.90;55.10;;;;;;6238338;23;20000;-73
2021/01/20 02:56:52;;;;;;;7.70;2.55;;;23.90;55.00;;;;;;6238838;23;20000;-70
2021/01/20 02:59:21;;;;;;;7.35;1.92;;;23.90;55.00;;;;;;6239513;23;20024;-70
2021/01/20 03:01:55;;;;;;;11.48;3.20;;;23.90;55.00;;;;;;6237742;23;20000;-72
2021/01/20 03:04:23;;;;;;;12.23;2.75;;;23.90;55.10;;;;;;6239021;23;20335;-73
2021/01/20 03:06:50;;;;;;;5.55;2.40;;;23.90;55.10;;;;;;6238320;23;20032;-74
2021/01/20 03:09:17;;;;;;;7.38;1.88;;;23.90;55.20;;;;;;6239749;23;20006;-72
2021/01/20 03:11:50;;;;;;;7.75;2.35;;;23.90;55.10;;;;;;6239172;23;20316;-70
2021/01/20 03:14:20;;;;;;;9.70;2.85;;;23.90;55.20;;;;;;6238672;23;20515;-74
2021/01/20 03:16:47;;;;;;;8.60;2.42;;;23.80;55.80;;;;;;6239551;23;20049;-73
2021/01/20 03:19:14;;;;;;;11.40;2.88;;;23.80;55.30;;;;;;6238379;22;20000;-71
2021/01/20 03:21:40;;;;;;;11.02;3.05;;;23.80;55.40;;;;;;6239861;23;20008;-72
2021/01/20 03:24:07;;;;;;;10.50;3.22;;;23.80;55.50;;;;;;6238147;23;20062;-71
2021/01/20 03:26:34;;;;;;;4.88;2.05;;;23.80;56.30;;;;;;6239225;22;20608;-70
2021/01/20 03:29:00;;;;;;;7.18;2.10;;;23.80;55.80;;;;;;6239497;23;20000;-70
2021/01/20 03:32:06;;;;;;;8.15;2.38;;;23.80;55.80;;;;;;6239452;23;20431;-71
2021/01/20 03:35:13;;;;;;;6.88;1.92;;;23.80;55.80;;;;;;6239988;23;20387;-71
2021/01/20 03:38:19;;;;;;;7.45;2.65;;;23.70;55.70;;;;;;6239058;23;20000;-73
2021/01/20 03:41:25;;;;;;;7.88;2.10;;;23.70;55.60;;;;;;6238369;23;20008;-73
2021/01/20 03:44:31;;;;;;;6.47;2.25;;;23.70;55.50;;;;;;6240133;23;20075;-70
2021/01/20 03:47:37;;;;;;;7.65;2.42;;;23.70;55.40;;;;;;6239292;23;20008;-71
2021/01/20 03:50:43;;;;;;;14.18;3.60;;;23.70;55.40;;;;;;6240214;23;20004;-71
2021/01/20 03:53:29;;;;;;;;;;;23.70;55.40;;;;;;6241049;23;19996;-72
2021/01/20 03:56:35;;;;;;;11.63;3.80;;;23.70;55.50;;;;;;6241094;23;19911;-71
2021/01/20 03:59:41;;;;;;;8.70;3.30;;;23.70;55.60;;;;;;6240482;23;20045;-73
2021/01/20 04:02:48;;;;;;;9.98;3.60;;;23.70;55.60;;;;;;6240033;23;20023;-72
2021/01/20 04:05:54;;;;;;;8.13;3.10;;;23.60;55.70;;;;;;6240833;23;20089;-73
2021/01/20 04:09:00;;;;;;;11.02;2.42;;;23.60;55.70;;;;;;6241053;23;20023;-71
2021/01/20 04:12:06;;;;;;;13.52;3.65;;;23.60;55.50;;;;;;6239547;23;20418;-74
2021/01/20 04:15:12;;;;;;;7.93;3.33;;;23.60;55.30;;;;;;6240570;23;19996;-72
2021/01/20 04:18:18;;;;;;;20.70;9.85;;;23.60;55.10;;;;;;6240793;23;20000;-72
2021/01/20 04:21:24;;;;;;;23.98;12.65;;;23.60;55.10;;;;;;6240482;23;20038;-73
2021/01/20 04:24:31;;;;;;;20.98;10.63;;;23.60;55.00;;;;;;6239730;23;20004;-73
2021/01/20 04:27:37;;;;;;;19.75;8.25;;;23.60;55.10;;;;;;6238467;23;20388;-73
2021/01/20 04:30:43;;;;;;;12.73;5.45;;;23.60;55.10;;;;;;6241409;23;20065;-72
2021/01/20 04:33:29;;;;;;;;;;;23.60;55.20;;;;;;6240189;23;20000;-73
2021/01/20 04:36:35;;;;;;;8.73;4.05;;;23.60;55.30;;;;;;6240569;23;19965;-72
2021/01/20 04:39:41;;;;;;;15.10;3.35;;;23.60;55.30;;;;;;6241169;23;20035;-73
2021/01/20 04:42:47;;;;;;;7.88;3.17;;;23.60;55.30;;;;;;6238601;23;20034;-72
2021/01/20 04:45:53;;;;;;;14.02;4.20;;;23.60;55.40;;;;;;6240140;23;20012;-71
2021/01/20 04:48:59;;;;;;;14.02;3.65;;;23.50;55.50;;;;;;6241089;23;20030;-71
2021/01/20 04:52:05;;;;;;;9.93;3.10;;;23.50;55.50;;;;;;6239488;23;20455;-71
2021/01/20 04:55:11;;;;;;;12.52;4.15;;;23.50;55.50;;;;;;6239562;23;20004;-71
2021/01/20 04:58:17;;;;;;;7.40;2.75;;;23.50;55.40;;;;;;6240468;23;20039;-73
2021/01/20 05:00:44;;;;;;;9.25;2.95;;;23.50;55.40;;;;;;6240659;23;20039;-72
2021/01/20 05:03:10;;;;;;;9.60;3.03;;;23.50;55.40;;;;;;6239251;23;20477;-72
2021/01/20 05:05:37;;;;;;;6.78;1.90;;;23.50;55.40;;;;;;6240201;23;20035;-73
2021/01/20 05:08:05;;;;;;;8.55;2.63;;;23.50;55.40;;;;;;6239138;23;20329;-72
2021/01/20 05:10:32;;;;;;;10.85;2.65;;;23.60;55.40;;;;;;6240398;23;20039;-72
2021/01/20 05:12:59;;;;;;;12.05;2.83;;;23.60;55.20;;;;;;6239238;22;20011;-72
2021/01/20 05:15:31;;;;;;;10.65;2.90;;;23.50;55.20;;;;;;6238277;23;20323;-72
2021/01/20 05:18:04;;;;;;;6.93;3.63;;;23.50;55.20;;;;;;6240115;23;20004;-73
2021/01/20 05:20:35;;;;;;;7.45;2.05;;;23.50;55.20;;;;;;6239026;22;20366;-72
2021/01/20 05:23:04;;;;;;;13.35;2.55;;;23.60;55.20;;;;;;6240272;23;19996;-73
2021/01/20 05:25:31;;;;;;;8.65;2.55;;;23.60;55.30;;;;;;6239702;23;20008;-72
2021/01/20 05:28:14;;;;;;;9.35;2.08;;;23.50;55.30;;;;;;6240629;23;20095;-73
2021/01/20 05:30:48;;;;;;;6.50;3.42;;;23.50;55.40;;;;;;6240885;23;20314;-72
2021/01/20 05:33:16;;;;;;;9.93;2.95;;;23.60;55.50;;;;;;6239918;23;20000;-72
2021/01/20 05:35:44;;;;;;;10.27;2.38;;;23.60;55.40;;;;;;6240809;23;20145;-72
2021/01/20 05:38:11;;;;;;;6.35;2.28;;;23.60;55.50;;;;;;6238571;22;20050;-73
2021/01/20 05:40:38;;;;;;;10.02;2.58;;;23.60;55.50;;;;;;6240064;23;20036;-72
2021/01/20 05:43:05;;;;;;;10.98;2.70;;;23.60;55.40;;;;;;6239656;23;20000;-72
2021/01/20 05:45:44;;;;;;;18.48;3.72;;;23.60;55.50;;;;;;6240127;23;20016;-72
2021/01/20 05:48:11;;;;;;;11.60;3.72;;;23.60;55.40;;;;;;6240889;23;20458;-72
2021/01/20 05:50:55;;;;;;;10.05;2.95;;;23.70;55.40;;;;;;6239150;23;20414;-73
2021/01/20 05:53:22;;;;;;;10.55;2.08;;;23.70;55.40;;;;;;6239307;22;20427;-72
2021/01/20 05:56:01;;;;;;;12.90;2.80;;;23.70;55.40;;;;;;6238774;23;20387;-72
2021/01/20 05:58:39;;;;;;;7.18;3.08;;;23.80;55.30;;;;;;6239471;23;20383;-73
2021/01/20 06:01:10;;;;;;;8.40;2.10;;;23.80;55.20;;;;;;6240219;23;20070;-72
2021/01/20 06:03:37;;;;;;;14.43;3.03;;;23.80;55.00;;;;;;6239197;23;20014;-72
2021/01/20 06:06:05;;;;;;;8.32;2.40;;;23.80;54.90;;;;;;6239925;23;20323;-72
2021/01/20 06:09:11;;;;;;;6.97;1.83;;;23.80;54.90;;;;;;6233638;23;20428;-71
2021/01/20 06:12:17;;;;;;;7.68;3.25;;;23.80;54.80;;;;;;6236805;23;20027;-72
2021/01/20 06:15:23;;;;;;;8.60;2.53;;;23.90;54.90;;;;;;6238450;23;20484;-72
2021/01/20 06:18:09;;;;;;;;;;;23.90;54.80;;;;;;6239674;23;20007;-71
2021/01/20 06:21:15;;;;;;;6.25;2.15;;;24.00;54.90;;;;;;6239004;23;20319;-72
2021/01/20 06:24:01;;;;;;;;;;;24.00;54.70;;;;;;6238454;23;20000;-71
2021/01/20 06:27:26;;;;;;;4.60;2.47;;;24.00;54.50;;;;;;6239457;23;19923;-72
2021/01/20 06:30:48;;;;;;;5.60;2.55;;;24.00;54.30;;;;;;6237558;23;20447;-72
2021/01/20 06:33:54;;;;;;;5.80;1.52;;;24.10;54.00;;;;;;6174414;23;20055;-71
2021/01/20 06:37:09;;;;;;;5.22;1.38;;;24.10;53.90;;;;;;6238829;23;20011;-71
2021/01/20 06:40:15;;;;;;;4.45;1.63;;;24.10;53.80;;;;;;6239450;23;20004;-72
2021/01/20 06:43:21;;;;;;;6.90;2.08;;;24.20;53.70;;;;;;6238444;23;20024;-72
2021/01/20 06:46:45;;;;;;;8.15;2.78;;;24.20;53.70;;;;;;6239010;23;20530;-72
2021/01/20 06:49:51;;;;;;;6.05;1.60;;;24.30;53.70;;;;;;6239426;23;20010;-72
2021/01/20 06:52:57;;;;;;;8.15;1.83;;;24.30;53.50;;;;;;6239229;23;20024;-72
2021/01/20 06:56:09;;;;;;;8.38;1.60;;;24.30;53.20;;;;;;6238882;23;20263;-72
2021/01/20 06:59:11;;;;;;;6.60;2.10;;;24.30;53.20;;;;;;6240416;23;20004;-72
2021/01/20 07:02:04;;;;;;;5.95;1.88;;;24.40;53.10;;;;;;6240307;23;20466;-72
2021/01/20 07:04:39;;;;;;;5.43;2.03;;;24.40;53.10;;;;;;6236736;23;20023;-72
2021/01/20 07:07:50;;;;;;;6.47;2.05;;;24.50;53.00;;;;;;6240058;23;20007;-72
2021/01/20 07:11:08;;;;;;;5.53;1.88;;;24.50;52.80;;;;;;6240156;22;20039;-72
2021/01/20 07:14:17;;;;;;;5.47;2.20;;;24.60;52.90;;;;;;6203645;22;20080;-72
2021/01/20 07:17:23;;;;;;;7.07;1.83;;;24.60;52.40;;;;;;6238591;23;20036;-72
2021/01/20 07:20:29;;;;;;;7.70;1.45;;;24.60;52.60;;;;;;6239522;23;20066;-72
2021/01/20 07:23:15;;;;;;;;;;;24.60;52.30;;;;;;6240122;23;20004;-71
2021/01/20 07:26:21;;;;;;;7.18;1.80;;;24.60;52.30;;;;;;6240184;23;20303;-71
2021/01/20 07:29:33;;;;;;;4.55;1.67;;;24.70;52.30;;;;;;6241293;23;20011;-72
2021/01/20 07:32:39;;;;;;;7.55;2.55;;;24.70;52.10;;;;;;6241327;23;20012;-71
2021/01/20 07:35:45;;;;;;;7.80;2.45;;;24.80;51.90;;;;;;6238817;23;20067;-72
2021/01/20 07:38:51;;;;;;;8.98;1.83;;;24.80;51.90;;;;;;6236609;23;20016;-73
2021/01/20 07:41:38;;;;;;;;;;;24.90;52.10;;;;;;6241833;23;20019;-71
2021/01/20 07:44:23;;;;;;;;;;;24.90;51.90;;;;;;6240314;23;19911;-71
2021/01/20 07:47:36;;;;;;;5.03;1.83;;;24.90;51.90;;;;;;6241001;23;19900;-71
2021/01/20 07:50:42;;;;;;;7.05;2.08;;;25.00;51.50;;;;;;6241345;23;20000;-71
2021/01/20 07:53:28;;;;;;;;;;;25.00;51.40;;;;;;6238500;23;20015;-71
2021/01/20 07:56:34;;;;;;;6.95;2.63;;;25.00;51.20;;;;;;6239853;23;20238;-71
2021/01/20 07:59:38;;;;;;;;;;;25.10;50.90;;;;;;6242558;23;20004;-70
2021/01/20 08:02:51;;;;;;;6.90;3.97;;;25.10;50.90;;;;;;6240734;23;19954;-72
2021/01/20 08:05:57;;;;;;;8.35;2.83;;;25.20;50.60;;;;;;6240068;23;20373;-71
2021/01/20 08:08:43;;;;;;;;;;;25.30;50.20;;;;;;6241222;23;20000;-71
2021/01/20 08:11:49;;;;;;;8.27;2.75;;;25.30;49.30;;;;;;6240974;23;20016;-71
2021/01/20 08:14:35;;;;;;;;;;;25.40;48.80;;;;;;6240796;23;20008;-71
2021/01/20 08:17:41;;;;;;;5.18;1.50;;;25.40;48.80;;;;;;6239542;23;19978;-70
2021/01/20 08:20:50;;;;;;;5.95;1.58;;;25.50;48.70;;;;;;6241282;23;20007;-71
2021/01/20 08:23:55;;;;;;;6.13;1.75;;;25.70;47.30;;;;;;6239818;23;20012;-70
2021/01/20 08:27:14;;;;;;;6.73;2.33;;;25.70;48.10;;;;;;6238930;23;20059;-70
2021/01/20 08:30:29;;;;;;;7.35;2.70;;;25.70;48.50;;;;;;6238618;23;20016;-71
2021/01/20 08:33:38;;;;;;;8.05;1.75;;;25.70;48.80;;;;;;6240039;23;20020;-71
2021/01/20 08:36:44;;;;;;;13.93;7.90;;;25.70;48.80;;;;;;6239738;23;20480;-70
2021/01/20 08:39:50;;;;;;;9.60;4.95;;;25.70;48.40;;;;;;6239662;23;20000;-71
2021/01/20 08:42:21;;;;;;;;;;;25.80;48.90;;;;;;6240984;23;20008;-70
2021/01/20 08:45:21;;;;;;;19.65;12.23;;;25.90;48.60;;;;;;6239707;23;20256;-71
2021/01/20 08:48:27;;;;;;;10.85;4.68;;;25.90;49.10;;;;;;6236730;23;20320;-71
2021/01/20 08:51:13;;;;;;;;;;;25.90;48.90;;;;;;6238229;23;20014;-71
2021/01/20 08:54:28;;;;;;;8.27;3.58;;;26.00;48.60;;;;;;6240289;23;19907;-71
2021/01/20 08:57:34;;;;;;;8.32;3.53;;;26.00;47.90;;;;;;6239186;23;20004;-71
2021/01/20 09:00:20;;;;;;;;;;;26.00;47.50;;;;;;6241042;23;20409;-71
2021/01/20 09:03:12;;;;;;;8.02;1.80;;;26.10;48.00;;;;;;6240812;23;20235;-71
2021/01/20 09:06:18;;;;;;;10.77;2.35;;;26.10;46.90;;;;;;6238534;22;20012;-71
2021/01/20 09:09:04;;;;;;;;;;;26.10;47.00;;;;;;6240715;23;20075;-71
2021/01/20 09:12:10;;;;;;;3.42;2.38;;;26.20;46.50;;;;;;6240318;23;19907;-71
2021/01/20 09:14:56;;;;;;;;;;;26.30;47.00;;;;;;6239446;23;20004;-70
2021/01/20 09:18:02;;;;;;;5.93;2.38;;;26.30;47.90;;;;;;6239994;23;20304;-71
2021/01/20 09:21:08;;;;;;;8.98;2.30;;;26.40;48.00;;;;;;6240482;23;20007;-71
2021/01/20 09:24:14;;;;;;;6.00;1.85;;;26.50;48.40;;;;;;6239622;23;20050;-71
2021/01/20 09:27:20;;;;;;;5.70;1.98;;;26.50;47.50;;;;;;6238678;23;20008;-71
2021/01/20 09:30:27;;;;;;;4.20;2.17;;;26.50;47.40;;;;;;6240469;23;19996;-71
2021/01/20 09:33:33;;;;;;;5.45;2.20;;;26.60;47.50;;;;;;6240170;23;20652;-71
2021/01/20 09:36:39;;;;;;;10.75;2.42;;;26.70;48.00;;;;;;6238788;23;19996;-72
2021/01/20 09:39:45;;;;;;;10.43;2.08;;;26.70;47.00;;;;;;6239918;23;20004;-71
2021/01/20 09:42:51;;;;;;;6.70;1.63;;;26.70;46.50;;;;;;6240148;23;20000;-71
2021/01/20 09:45:57;;;;;;;7.47;2.08;;;26.70;47.20;;;;;;6239206;23;20060;-70
2021/01/20 09:49:03;;;;;;;9.40;2.65;;;26.80;46.00;;;;;;6239377;23;20030;-71
2021/01/20 09:52:10;;;;;;;6.50;1.88;;;26.90;46.30;;;;;;6240044;23;20000;-71
2021/01/20 09:55:16;;;;;;;6.78;2.40;;;26.90;46.90;;;;;;6238048;23;20004;-71
2021/01/20 09:58:22;;;;;;;10.75;2.35;;;27.00;47.20;;;;;;6238220;23;20420;-71
2021/01/20 10:01:28;;;;;;;7.50;1.88;;;27.00;47.30;;;;;;6239733;23;20016;-71
2021/01/20 10:04:34;;;;;;;7.22;4.00;;;27.00;46.80;;;;;;6240286;23;20000;-70
2021/01/20 10:07:40;;;;;;;7.95;3.38;;;27.10;47.90;;;;;;6239239;23;20027;-71
2021/01/20 10:10:47;;;;;;;9.10;2.45;;;27.10;46.60;;;;;;6239018;23;19996;-71
2021/01/20 10:13:54;;;;;;;7.38;3.17;;;27.10;46.00;;;;;;6239811;23;20473;-71
2021/01/20 10:17:00;;;;;;;10.40;3.00;;;27.20;46.30;;;;;;6239440;23;20071;-71
2021/01/20 10:20:06;;;;;;;7.97;3.03;;;27.20;46.60;;;;;;6238760;23;20082;-72
2021/01/20 10:23:12;;;;;;;9.00;2.78;;;27.30;45.70;;;;;;6239338;23;19997;-72
2021/01/20 10:26:18;;;;;;;8.13;2.03;;;27.30;45.80;;;;;;6240386;23;20011;-72
2021/01/20 10:29:27;;;;;;;5.45;1.80;;;27.40;45.80;;;;;;6239695;23;20432;-72
2021/01/20 10:32:33;;;;;;;8.35;2.40;;;27.50;46.10;;;;;;6238827;22;20397;-72
2021/01/20 10:35:40;;;;;;;4.82;2.17;;;27.50;46.10;;;;;;6240202;23;20000;-72
2021/01/20 10:38:46;;;;;;;5.78;2.20;;;27.60;46.50;;;;;;6240188;22;19996;-72
2021/01/20 10:41:52;;;;;;;8.02;2.22;;;27.60;46.30;;;;;;6238475;23;20075;-72
2021/01/20 10:44:58;;;;;;;12.60;2.65;;;27.60;46.70;;;;;;6238790;23;20000;-72
2021/01/20 10:48:04;;;;;;;5.88;1.85;;;27.60;46.30;;;;;;6239779;23;20032;-72
2021/01/20 10:51:10;;;;;;;14.63;3.00;;;27.60;48.00;;;;;;6239232;23;20004;-72
2021/01/20 10:54:16;;;;;;;8.25;1.77;;;27.70;47.00;;;;;;6238894;23;20008;-72
2021/01/20 10:57:22;;;;;;;10.50;3.47;;;27.70;46.50;;;;;;6239780;23;20324;-72
2021/01/20 11:00:28;;;;;;;8.80;2.88;;;27.70;46.70;;;;;;6241390;23;20016;-72
2021/01/20 11:03:34;;;;;;;6.50;2.03;;;27.70;46.60;;;;;;6240264;23;20004;-72
2021/01/20 11:06:40;;;;;;;4.80;2.05;;;27.80;46.40;;;;;;6239741;23;20397;-71
2021/01/20 11:09:47;;;;;;;7.00;2.33;;;27.90;46.60;;;;;;6241283;23;20476;-72
2021/01/20 11:12:54;;;;;;;6.93;2.00;;;27.90;46.20;;;;;;6239918;23;20078;-72
2021/01/20 11:16:00;;;;;;;7.43;2.08;;;27.90;46.30;;;;;;6240888;23;20432;-72
2021/01/20 11:19:06;;;;;;;8.05;1.90;;;27.90;46.00;;;;;;6238430;23;20297;-71
2021/01/20 11:22:12;;;;;;;11.70;7.47;;;28.00;46.20;;;;;;6241047;23;20000;-70
2021/01/20 11:25:18;;;;;;;14.85;4.68;;;28.00;46.40;;;;;;6234839;23;20015;-72
2021/01/20 11:28:24;;;;;;;11.13;4.22;;;28.00;46.60;;;;;;6239051;23;20023;-70
2021/01/20 11:31:30;;;;;;;13.43;3.80;;;27.90;46.10;;;;;;6238264;23;20002;-72
2021/01/20 11:34:36;;;;;;;6.80;2.65;;;27.90;46.30;;;;;;6239091;23;20027;-71
2021/01/20 11:37:44;;;;;;;5.53;2.45;;;27.90;46.80;;;;;;6239917;23;20005;-73
2021/01/20 11:40:50;;;;;;;10.88;3.42;;;27.90;46.80;;;;;;6241384;23;20000;-70
2021/01/20 11:43:56;;;;;;;6.80;2.38;;;28.00;47.10;;;;;;6237879;23;20007;-71
2021/01/20 11:47:02;;;;;;;7.63;2.47;;;28.10;46.90;;;;;;6239621;23;20053;-73
2021/01/20 11:50:10;;;;;;;8.50;2.70;;;28.10;47.00;;;;;;6239110;23;20004;-71
2021/01/20 11:53:16;;;;;;;14.57;3.80;;;28.10;47.10;;;;;;6239731;23;20004;-70
2021/01/20 11:56:22;;;;;;;8.98;2.53;;;28.20;46.90;;;;;;6241076;23;20012;-70
2021/01/20 11:59:28;;;;;;;17.25;2.55;;;28.20;48.00;;;;;;6240712;23;20000;-69
2021/01/20 12:02:34;;;;;;;13.48;4.00;;;28.20;47.50;;;;;;6240552;23;20012;-70
2021/01/20 12:05:40;;;;;;;7.28;2.13;;;28.20;47.30;;;;;;6235371;23;20019;-70
2021/01/20 12:08:46;;;;;;;9.45;3.20;;;28.30;47.50;;;;;;6240721;23;20313;-70
2021/01/20 12:11:52;;;;;;;7.47;1.77;;;28.30;47.40;;;;;;6240411;23;20428;-71
2021/01/20 12:14:58;;;;;;;7.68;3.15;;;28.40;47.30;;;;;;6241114;23;20420;-70
2021/01/20 12:18:07;;;;;;;12.15;5.65;;;28.40;47.20;;;;;;6242553;23;20023;-73
2021/01/20 12:21:13;;;;;;;11.63;3.88;;;28.40;46.90;;;;;;6241388;23;20004;-73
2021/01/20 12:24:19;;;;;;;7.43;3.17;;;28.40;47.20;;;;;;6241661;23;20305;-71
2021/01/20 12:27:25;;;;;;;13.32;3.58;;;28.50;47.10;;;;;;6240777;23;20008;-71
2021/01/20 12:30:32;;;;;;;7.03;2.75;;;28.60;46.90;;;;;;6240412;23;20079;-70
2021/01/20 12:33:38;;;;;;;8.20;2.15;;;28.60;46.90;;;;;;6239645;22;20015;-70
2021/01/20 12:36:45;;;;;;;9.98;2.38;;;28.70;46.70;;;;;;6240266;23;20000;-71
2021/01/20 12:39:52;;;;;;;6.35;2.10;;;28.70;46.50;;;;;;6240790;22;20118;-72
2021/01/20 12:42:58;;;;;;;12.45;3.17;;;28.70;46.80;;;;;;6239442;23;20000;-71
2021/01/20 12:46:04;;;;;;;10.82;3.25;;;28.70;46.70;;;;;;6238759;23;20004;-70
2021/01/20 12:49:10;;;;;;;9.52;3.50;;;28.70;46.50;;;;;;6240599;23;20435;-70
2021/01/20 12:52:16;;;;;;;10.30;2.50;;;28.70;46.90;;;;;;6240090;23;20032;-71
2021/01/20 12:55:24;;;;;;;7.50;2.72;;;28.80;46.70;;;;;;6239576;23;20008;-71
2021/01/20 12:58:30;;;;;;;10.77;3.40;;;28.80;46.70;;;;;;6240812;22;20027;-70
2021/01/20 13:01:36;;;;;;;7.22;2.33;;;28.80;46.60;;;;;;6240352;23;20009;-73
2021/01/20 13:04:42;;;;;;;8.50;2.30;;;28.80;46.70;;;;;;6239498;23;20000;-70
2021/01/20 13:07:48;;;;;;;13.00;2.55;;;28.80;46.40;;;;;;6238740;23;20008;-70
2021/01/20 13:10:55;;;;;;;9.98;2.55;;;28.80;46.50;;;;;;6240379;23;20003;-72
2021/01/20 13:14:01;;;;;;;5.43;2.95;;;28.80;46.70;;;;;;6241717;23;20000;-71
2021/01/20 13:17:07;;;;;;;14.80;5.75;;;28.80;46.30;;;;;;6240909;23;20086;-71
2021/01/20 13:20:13;;;;;;;10.98;4.57;;;28.80;46.40;;;;;;6241865;23;20007;-70
2021/01/20 13:23:19;;;;;;;13.30;2.90;;;28.80;46.50;;;;;;6242082;23;20000;-69
2021/01/20 13:26:25;;;;;;;6.60;2.53;;;28.80;46.30;;;;;;6241114;23;20015;-70
2021/01/20 13:29:31;;;;;;;7.82;3.00;;;28.80;46.70;;;;;;6240624;23;20286;-73
2021/01/20 13:32:38;;;;;;;9.77;2.80;;;28.80;46.90;;;;;;6241508;23;20069;-71
2021/01/20 13:35:44;;;;;;;10.75;3.42;;;28.80;46.30;;;;;;6241792;23;20384;-71
2021/01/20 13:38:50;;;;;;;9.70;4.90;;;28.80;46.70;;;;;;6240175;23;19996;-70
2021/01/20 13:41:56;;;;;;;8.90;2.90;;;28.80;46.60;;;;;;6241151;23;20030;-70
2021/01/20 13:45:02;;;;;;;14.52;3.08;;;28.80;46.40;;;;;;6241577;23;20004;-70
2021/01/20 13:47:29;;;;;;;9.57;3.13;;;28.80;46.70;;;;;;6240841;23;20004;-71
2021/01/20 13:49:55;;;;;;;8.95;2.75;;;28.80;46.80;;;;;;6240864;23;20008;-70
2021/01/20 13:52:22;;;;;;;15.77;2.97;;;28.80;46.90;;;;;;6240963;23;20197;-70
2021/01/20 13:54:48;;;;;;;13.98;2.58;;;28.80;46.70;;;;;;6240688;23;20432;-71
2021/01/20 13:57:15;;;;;;;10.93;3.78;;;28.80;46.80;;;;;;6242032;23;20026;-69
2021/01/20 13:59:41;;;;;;;8.77;2.38;;;28.90;47.10;;;;;;6241012;23;20093;-69
2021/01/20 14:02:08;;;;;;;9.77;2.65;;;28.90;46.70;;;;;;6242243;23;20087;-71
2021/01/20 14:04:35;;;;;;;16.15;2.92;;;28.80;46.70;;;;;;6240887;23;20000;-71
2021/01/20 14:07:02;;;;;;;10.40;2.88;;;28.80;47.10;;;;;;6242212;23;20006;-73
2021/01/20 14:09:30;;;;;;;7.43;2.95;;;28.80;47.10;;;;;;6240582;22;20054;-72
2021/01/20 14:12:36;;;;;;;13.13;2.70;;;28.80;47.00;;;;;;6240402;23;20004;-71
2021/01/20 14:15:42;;;;;;;12.93;3.22;;;28.80;46.80;;;;;;6241889;23;20493;-72
2021/01/20 14:18:49;;;;;;;7.53;2.65;;;28.70;46.90;;;;;;6240561;23;20328;-71
2021/01/20 14:21:55;;;;;;;15.15;4.45;;;28.70;47.00;;;;;;6240166;23;20533;-70
2021/01/20 14:25:02;;;;;;;14.48;2.67;;;28.70;47.70;;;;;;6241322;23;20059;-70
2021/01/20 14:28:08;;;;;;;17.77;3.28;;;28.70;47.60;;;;;;6239844;23;20000;-70
2021/01/20 14:31:14;;;;;;;17.85;2.90;;;28.60;47.70;;;;;;6240219;23;20000;-71
2021/01/20 14:34:24;;;;;;;13.20;3.55;;;28.70;47.50;;;;;;6240147;23;20471;-69
2021/01/20 14:37:30;;;;;;;17.63;10.48;;;28.60;48.20;;;;;;6241215;22;20000;-71
2021/01/20 14:40:36;;;;;;;16.85;6.10;;;28.60;48.60;;;;;;6240727;23;20004;-71
2021/01/20 14:43:42;;;;;;;9.52;4.47;;;28.60;49.10;;;;;;6240586;23;20031;-71
2021/01/20 14:46:09;;;;;;;12.27;3.90;;;28.50;48.90;;;;;;6235329;23;20462;-70
2021/01/20 14:48:36;;;;;;;7.05;2.33;;;28.50;48.70;;;;;;6238043;22;20004;-70